createdAt,value
2023-02-08T00:01:22.582Z,15.00
2023-02-08T00:04:25.448Z,16.50
2023-02-08T00:07:28.547Z,15.30
2023-02-08T00:10:31.506Z,14.80
2023-02-08T00:13:34.644Z,16.70
2023-02-08T00:16:38.821Z,16.50
2023-02-08T00:19:41.830Z,14.00
2023-02-08T00:22:44.826Z,15.07
2023-02-08T00:25:47.860Z,16.27
2023-02-08T00:28:50.724Z,15.43
2023-02-08T00:31:54.940Z,14.93
2023-02-08T00:34:57.847Z,16.30
2023-02-08T00:38:00.755Z,19.30
2023-02-08T00:41:03.755Z,16.43
2023-02-08T00:44:06.802Z,15.50
2023-02-08T00:47:11.001Z,16.47
2023-02-08T00:50:13.865Z,19.57
2023-02-08T00:53:16.712Z,17.97
2023-02-08T00:56:19.588Z,20.60
2023-02-08T00:59:22.477Z,19.33
2023-02-08T01:02:27.064Z,17.53
2023-02-08T01:05:29.945Z,16.90
2023-02-08T01:08:33.065Z,18.87
2023-02-08T01:11:35.972Z,15.70
2023-02-08T01:14:39.921Z,15.43
2023-02-08T01:17:44.122Z,16.27
2023-02-08T01:20:47.030Z,20.17
2023-02-08T01:23:49.972Z,16.97
2023-02-08T01:26:53.163Z,14.97
2023-02-08T01:29:56.028Z,15.70
2023-02-08T01:33:00.216Z,19.07
2023-02-08T01:36:03.949Z,16.03
2023-02-08T01:39:08.840Z,16.83
2023-02-08T01:42:14.264Z,15.70
2023-02-08T01:45:26.401Z,16.97
2023-02-08T01:48:32.776Z,16.97
2023-02-08T01:51:38.934Z,17.53
2023-02-08T01:54:47.624Z,15.77
2023-02-08T01:57:54.821Z,17.13
2023-02-08T02:00:57.746Z,17.03
2023-02-08T02:04:04.274Z,14.57
2023-02-08T02:07:07.844Z,16.90
2023-02-08T02:10:15.359Z,17.50
2023-02-08T02:13:20.909Z,16.67
2023-02-08T02:16:23.788Z,17.53
2023-02-08T02:19:38.383Z,17.03
2023-02-08T02:23:22.857Z,21.37
2023-02-08T02:26:51.526Z,17.17
2023-02-08T02:30:42.495Z,19.03
2023-02-08T02:34:06.134Z,17.53
2023-02-08T02:37:19.074Z,19.10
2023-02-08T02:40:27.791Z,18.53
2023-02-08T02:43:42.569Z,18.70
2023-02-08T02:46:51.400Z,20.40
2023-02-08T02:50:02.924Z,19.83
2023-02-08T02:53:11.068Z,18.80
2023-02-08T02:56:18.895Z,22.97
2023-02-08T02:59:23.609Z,19.17
2023-02-08T03:02:26.957Z,18.33
2023-02-08T03:05:31.760Z,19.97
2023-02-08T03:09:02.467Z,19.23
2023-02-08T03:12:17.145Z,22.07
2023-02-08T03:15:29.843Z,20.13
2023-02-08T03:18:40.515Z,20.33
2023-02-08T03:21:51.942Z,19.13
2023-02-08T03:24:57.956Z,22.50
2023-02-08T03:28:06.708Z,21.63
2023-02-08T03:31:16.223Z,19.87
2023-02-08T03:34:24.600Z,22.27
2023-02-08T03:37:33.817Z,20.23
2023-02-08T03:40:39.829Z,20.77
2023-02-08T03:43:47.913Z,24.83
2023-02-08T03:46:56.288Z,20.20
2023-02-08T03:50:03.610Z,22.10
2023-02-08T03:53:09.233Z,20.60
2023-02-08T03:56:18.276Z,20.83
2023-02-08T03:59:25.056Z,20.37
2023-02-08T04:02:30.769Z,25.10
2023-02-08T04:05:34.060Z,21.23
2023-02-08T04:08:38.296Z,23.50
2023-02-08T04:11:41.181Z,24.30
2023-02-08T04:14:44.044Z,22.93
2023-02-08T04:17:46.912Z,23.50
2023-02-08T04:20:49.761Z,20.47
2023-02-08T04:23:54.013Z,21.90
2023-02-08T04:26:56.911Z,24.67
2023-02-08T04:29:59.836Z,26.83
2023-02-08T04:33:03.824Z,19.87
2023-02-08T04:36:07.260Z,25.27
2023-02-08T04:39:11.592Z,25.73
2023-02-08T04:42:14.471Z,27.27
2023-02-08T04:45:17.436Z,20.40
2023-02-08T04:48:20.943Z,23.23
2023-02-08T04:51:23.879Z,20.73
2023-02-08T04:54:28.160Z,19.90
2023-02-08T04:57:31.038Z,21.73
2023-02-08T05:00:33.999Z,23.73
2023-02-08T05:03:36.891Z,22.87
2023-02-08T05:06:39.806Z,23.47
2023-02-08T05:09:44.022Z,26.03
2023-02-08T05:12:46.934Z,24.07
2023-02-08T05:15:49.822Z,20.03
2023-02-08T05:18:52.706Z,21.57
2023-02-08T05:21:55.562Z,21.80
2023-02-08T05:25:00.179Z,29.77
2023-02-08T05:28:03.112Z,22.03
2023-02-08T05:31:11.454Z,22.53
2023-02-08T05:34:14.395Z,23.67
2023-02-08T05:37:17.257Z,22.77
2023-02-08T05:40:21.564Z,22.30
2023-02-08T05:43:24.420Z,24.30
2023-02-08T05:46:27.317Z,19.63
2023-02-08T05:49:30.202Z,24.10
2023-02-08T05:52:33.322Z,24.13
2023-02-08T05:55:37.556Z,21.47
2023-02-08T05:58:40.497Z,23.80
2023-02-08T06:01:43.364Z,21.43
2023-02-08T06:04:46.553Z,21.47
2023-02-08T06:07:49.391Z,27.97
2023-02-08T06:10:53.614Z,20.17
2023-02-08T06:13:56.624Z,24.63
2023-02-08T06:16:59.811Z,25.13
2023-02-08T06:20:02.728Z,24.57
2023-02-08T06:23:05.614Z,24.20
2023-02-08T06:26:09.841Z,25.53
2023-02-08T06:29:12.763Z,25.83
2023-02-08T06:32:15.719Z,23.70
2023-02-08T06:35:18.819Z,25.80
2023-02-08T06:38:21.938Z,23.97
2023-02-08T06:41:27.195Z,27.93
2023-02-08T06:44:30.088Z,25.10
2023-02-08T06:47:32.976Z,25.67
2023-02-08T06:50:37.895Z,25.70
2023-02-08T06:53:40.891Z,29.63
2023-02-08T06:56:45.290Z,25.77
2023-02-08T06:59:48.191Z,27.00
2023-02-08T07:02:51.412Z,23.57
2023-02-08T07:06:04.560Z,23.13
2023-02-08T07:09:08.256Z,26.57
2023-02-08T07:12:12.626Z,30.47
2023-02-08T07:15:15.509Z,22.77
2023-02-08T07:18:18.360Z,24.10
2023-02-08T07:21:21.661Z,23.47
2023-02-08T07:24:25.288Z,26.33
2023-02-08T07:27:29.724Z,26.93
2023-02-08T07:30:32.640Z,27.83
2023-02-08T07:33:35.817Z,26.83
2023-02-08T07:36:38.706Z,25.60
2023-02-08T07:39:41.600Z,26.77
2023-02-08T07:42:45.838Z,24.60
2023-02-08T07:45:48.735Z,25.87
2023-02-08T07:48:52.687Z,23.90
2023-02-08T07:51:55.609Z,24.17
2023-02-08T07:54:58.473Z,30.43
2023-02-08T07:58:02.680Z,24.20
2023-02-08T08:01:20.924Z,24.50
2023-02-08T08:04:25.004Z,29.23
2023-02-08T08:07:27.940Z,26.13
2023-02-08T08:10:31.017Z,26.90
2023-02-08T08:13:35.280Z,26.73
2023-02-08T08:16:38.219Z,33.00
2023-02-08T08:19:41.085Z,22.37
2023-02-08T08:22:43.969Z,26.63
2023-02-08T08:25:46.979Z,20.70
2023-02-08T08:28:51.362Z,30.40
2023-02-08T08:31:54.322Z,21.60
2023-02-08T08:34:57.178Z,20.57
2023-02-08T08:38:00.040Z,27.77
2023-02-08T08:41:02.936Z,25.80
2023-02-08T08:44:07.248Z,25.93
2023-02-08T08:47:10.435Z,27.17
2023-02-08T08:50:13.284Z,26.17
2023-02-08T08:53:16.172Z,21.63
2023-02-08T08:56:19.435Z,22.90
2023-02-08T08:59:23.839Z,45.13
2023-02-08T09:02:26.711Z,21.80
2023-02-08T09:05:29.676Z,21.10
2023-02-08T09:08:32.587Z,23.90
2023-02-08T09:11:35.518Z,19.47
2023-02-08T09:14:39.724Z,20.40
2023-02-08T09:17:42.600Z,25.43
2023-02-08T09:20:45.771Z,26.33
2023-02-08T09:23:49.189Z,35.07
2023-02-08T09:26:52.090Z,22.23
2023-02-08T09:29:56.433Z,22.40
2023-02-08T09:32:59.412Z,30.17
2023-02-08T09:36:02.726Z,26.70
2023-02-08T09:39:08.782Z,17.83
2023-02-08T09:42:27.829Z,20.87
2023-02-08T09:45:59.859Z,23.47
2023-02-08T09:49:06.591Z,21.00
2023-02-08T09:52:14.432Z,17.80
2023-02-08T09:55:31.300Z,25.83
2023-02-08T09:58:38.828Z,22.80
2023-02-08T10:01:43.100Z,23.60
2023-02-08T10:04:57.901Z,19.07
2023-02-08T10:08:02.736Z,25.60
2023-02-08T10:11:21.894Z,25.17
2023-02-08T10:14:43.055Z,21.10
2023-02-08T10:18:11.162Z,19.00
2023-02-08T10:21:30.135Z,22.63
2023-02-08T10:24:48.385Z,28.10
2023-02-08T10:28:06.365Z,26.27
2023-02-08T10:31:19.626Z,18.67
2023-02-08T10:34:36.837Z,18.27
2023-02-08T10:37:43.046Z,27.23
2023-02-08T10:40:47.852Z,23.70
2023-02-08T10:43:54.704Z,26.23
2023-02-08T10:47:07.341Z,17.30
2023-02-08T10:50:22.219Z,16.77
2023-02-08T10:53:25.096Z,19.70
2023-02-08T10:56:38.129Z,19.77
2023-02-08T10:59:50.247Z,21.37
2023-02-08T11:02:53.999Z,20.27
2023-02-08T11:05:58.440Z,18.47
2023-02-08T11:09:01.327Z,16.37
2023-02-08T11:12:04.381Z,18.30
2023-02-08T11:15:21.704Z,20.90
2023-02-08T11:18:27.703Z,20.57
2023-02-08T11:21:34.836Z,19.20
2023-02-08T11:24:41.498Z,23.00
2023-02-08T11:27:49.726Z,25.33
2023-02-08T11:31:01.304Z,21.93
2023-02-08T11:34:05.573Z,21.20
2023-02-08T11:37:18.650Z,21.40
2023-02-08T11:40:25.159Z,23.87
2023-02-08T11:43:30.949Z,23.83
2023-02-08T11:46:36.800Z,20.80
2023-02-08T11:49:42.324Z,22.43
2023-02-08T11:52:55.709Z,20.23
2023-02-08T11:56:05.101Z,18.13
2023-02-08T11:59:20.492Z,22.03
2023-02-08T12:02:37.727Z,18.43
2023-02-08T12:05:48.378Z,18.50
2023-02-08T12:09:01.984Z,28.17
2023-02-08T12:12:15.642Z,20.70
2023-02-08T12:15:27.287Z,20.40
2023-02-08T12:19:02.075Z,19.73
2023-02-08T12:22:10.512Z,18.50
2023-02-08T12:25:27.176Z,19.07
2023-02-08T12:28:43.412Z,25.50
2023-02-08T12:31:59.560Z,21.50
2023-02-08T12:35:33.128Z,21.87
2023-02-08T12:39:18.338Z,21.43
2023-02-08T12:42:34.879Z,18.17
2023-02-08T12:45:54.851Z,22.70
2023-02-08T12:49:09.182Z,19.97
2023-02-08T12:52:24.453Z,17.47
2023-02-08T12:55:31.040Z,19.13
2023-02-08T12:58:43.364Z,17.50
2023-02-08T13:01:51.259Z,18.40
2023-02-08T13:04:59.556Z,19.83
2023-02-08T13:08:14.090Z,18.40
2023-02-08T13:11:21.836Z,18.30
2023-02-08T13:14:32.980Z,23.53
2023-02-08T13:17:45.998Z,16.50
2023-02-08T13:20:53.067Z,17.30
2023-02-08T13:23:56.292Z,18.53
2023-02-08T13:26:59.342Z,15.80
2023-02-08T13:30:04.799Z,17.60
2023-02-08T13:33:16.359Z,20.90
2023-02-08T13:36:25.943Z,19.03
2023-02-08T13:39:36.600Z,16.30
2023-02-08T13:42:43.618Z,19.00
2023-02-08T13:45:56.032Z,16.90
2023-02-08T13:49:00.904Z,18.20
2023-02-08T13:52:03.831Z,19.73
2023-02-08T13:55:45.997Z,15.50
2023-02-08T13:59:04.010Z,15.13
2023-02-08T14:02:30.649Z,16.50
2023-02-08T14:05:49.053Z,17.13
2023-02-08T14:08:59.403Z,15.93
2023-02-08T14:12:04.818Z,16.13
2023-02-08T14:15:28.709Z,18.23
2023-02-08T14:18:32.979Z,16.90
2023-02-08T14:21:39.457Z,15.17
2023-02-08T14:24:47.435Z,16.87
2023-02-08T14:27:53.480Z,14.70
2023-02-08T14:30:59.570Z,22.13
2023-02-08T14:34:04.390Z,15.60
2023-02-08T14:37:28.529Z,23.27
2023-02-08T14:40:50.453Z,15.03
2023-02-08T14:43:53.374Z,15.83
2023-02-08T14:46:56.409Z,13.87
2023-02-08T14:50:06.745Z,15.03
2023-02-08T14:53:35.336Z,13.40
2023-02-08T14:56:50.205Z,13.07
2023-02-08T14:59:54.785Z,12.87
2023-02-08T15:02:58.548Z,13.70
2023-02-08T15:06:28.062Z,17.07
2023-02-08T15:09:32.761Z,15.03
2023-02-08T15:12:39.566Z,14.37
2023-02-08T15:15:45.830Z,12.37
2023-02-08T15:18:51.621Z,12.43
2023-02-08T15:21:56.495Z,25.57
2023-02-08T15:25:04.309Z,14.70
2023-02-08T15:28:19.180Z,13.57
2023-02-08T15:31:24.725Z,15.77
2023-02-08T15:34:28.193Z,14.80
2023-02-08T15:37:34.837Z,14.03
2023-02-08T15:40:37.956Z,12.80
2023-02-08T15:43:42.744Z,13.40
2023-02-08T15:46:47.138Z,11.83
2023-02-08T15:49:53.654Z,12.67
2023-02-08T15:53:01.256Z,19.83
2023-02-08T15:56:05.722Z,17.77
2023-02-08T15:59:15.456Z,14.50
2023-02-08T16:02:25.261Z,13.47
2023-02-08T16:05:30.480Z,13.27
2023-02-08T16:08:37.034Z,21.60
2023-02-08T16:11:39.928Z,14.50
2023-02-08T16:14:52.506Z,15.40
2023-02-08T16:17:55.903Z,12.83
2023-02-08T16:20:59.611Z,17.10
2023-02-08T16:24:07.506Z,21.13
2023-02-08T16:27:21.355Z,12.27
2023-02-08T16:30:24.655Z,14.07
2023-02-08T16:33:28.132Z,14.37
2023-02-08T16:36:36.908Z,17.07
2023-02-08T16:39:52.659Z,18.70
2023-02-08T16:43:23.462Z,15.13
2023-02-08T16:46:28.021Z,19.00
2023-02-08T16:49:30.924Z,19.23
2023-02-08T16:52:34.769Z,16.50
2023-02-08T16:55:39.259Z,15.33
2023-02-08T16:58:42.275Z,15.93
2023-02-08T17:01:48.163Z,17.17
2023-02-08T17:04:54.573Z,16.60
2023-02-08T17:07:58.061Z,14.77
2023-02-08T17:11:02.598Z,17.07
2023-02-08T17:14:05.720Z,14.73
2023-02-08T17:17:08.730Z,14.97
2023-02-08T17:20:19.210Z,13.57
2023-02-08T17:23:22.081Z,17.30
2023-02-08T17:26:28.658Z,17.93
2023-02-08T17:29:31.626Z,12.83
2023-02-08T17:32:34.457Z,15.73
2023-02-08T17:35:38.893Z,15.17
2023-02-08T17:38:43.891Z,15.37
2023-02-08T17:41:48.102Z,17.33
2023-02-08T17:44:50.959Z,17.43
2023-02-08T17:47:54.472Z,16.23
2023-02-08T17:50:57.312Z,15.80
2023-02-08T17:54:00.245Z,14.73
2023-02-08T17:57:06.815Z,20.53
2023-02-08T18:00:12.398Z,14.37
2023-02-08T18:03:17.228Z,15.30
2023-02-08T18:06:20.806Z,14.87
2023-02-08T18:09:23.767Z,16.23
2023-02-08T18:12:28.025Z,17.90
2023-02-08T18:15:30.880Z,17.67
2023-02-08T18:18:33.726Z,15.93
2023-02-08T18:21:36.579Z,14.67
2023-02-08T18:24:39.448Z,17.13
2023-02-08T18:27:43.695Z,14.50
2023-02-08T18:30:46.638Z,19.17
2023-02-08T18:33:51.211Z,15.97
2023-02-08T18:36:54.165Z,15.53
2023-02-08T18:39:57.469Z,20.60
2023-02-08T18:43:01.717Z,19.93
2023-02-08T18:46:06.548Z,20.83
2023-02-08T18:49:10.217Z,15.90
2023-02-08T18:52:15.850Z,16.87
2023-02-08T18:55:18.865Z,21.67
2023-02-08T18:58:23.653Z,18.17
2023-02-08T19:01:26.553Z,19.97
2023-02-08T19:04:29.493Z,16.33
2023-02-08T19:07:34.937Z,16.07
2023-02-08T19:10:38.086Z,14.97
2023-02-08T19:13:42.336Z,14.47
2023-02-08T19:16:45.447Z,16.43
2023-02-08T19:19:48.955Z,13.73
2023-02-08T19:22:51.811Z,15.13
2023-02-08T19:25:54.682Z,14.60
2023-02-08T19:29:00.453Z,17.37
2023-02-08T19:32:03.413Z,15.93
2023-02-08T19:35:06.462Z,18.43
2023-02-08T19:38:09.285Z,15.10
2023-02-08T19:41:17.458Z,32.03
2023-02-08T19:44:22.728Z,20.20
2023-02-08T19:47:43.397Z,17.67
2023-02-08T19:50:55.327Z,20.97
2023-02-08T19:53:58.677Z,19.00
2023-02-08T19:57:01.567Z,15.60
2023-02-08T20:00:11.299Z,16.07
2023-02-08T20:03:22.397Z,17.73
2023-02-08T20:06:29.985Z,19.17
2023-02-08T20:09:32.964Z,16.50
2023-02-08T20:12:35.814Z,16.43
2023-02-08T20:15:45.242Z,18.00
2023-02-08T20:18:48.576Z,16.43
2023-02-08T20:21:51.836Z,14.40
2023-02-08T20:24:54.818Z,15.03
2023-02-08T20:27:58.106Z,13.10
2023-02-08T20:31:02.506Z,13.33
2023-02-08T20:34:08.635Z,15.17
2023-02-08T20:37:11.579Z,15.13
2023-02-08T20:40:15.612Z,15.50
2023-02-08T20:43:18.488Z,14.23
2023-02-08T20:46:25.906Z,15.03
2023-02-08T20:49:30.737Z,14.23
2023-02-08T20:52:34.355Z,14.13
2023-02-08T20:55:41.750Z,11.97
2023-02-08T20:58:45.001Z,13.07
2023-02-08T21:01:49.667Z,15.87
2023-02-08T21:04:52.550Z,14.87
2023-02-08T21:07:55.400Z,15.87
2023-02-08T21:11:02.131Z,16.23
2023-02-08T21:14:06.647Z,17.33
2023-02-08T21:17:11.803Z,15.80
2023-02-08T21:20:15.582Z,15.60
2023-02-08T21:23:18.423Z,16.17
2023-02-08T21:26:22.276Z,15.47
2023-02-08T21:29:26.025Z,22.80
2023-02-08T21:32:30.225Z,20.27
2023-02-08T21:35:35.583Z,20.13
2023-02-08T21:38:38.768Z,19.80
2023-02-08T21:41:41.678Z,16.87
2023-02-08T21:44:44.497Z,15.30
2023-02-08T21:47:48.686Z,16.43
2023-02-08T21:51:08.953Z,14.60
2023-02-08T21:54:30.838Z,13.80
2023-02-08T21:57:39.744Z,12.60
2023-02-08T22:00:42.884Z,16.07
2023-02-08T22:03:47.301Z,13.17
2023-02-08T22:06:50.272Z,14.03
2023-02-08T22:09:53.358Z,13.20
2023-02-08T22:12:57.279Z,12.97
2023-02-08T22:16:00.594Z,17.77
2023-02-08T22:19:04.898Z,14.87
2023-02-08T22:22:08.592Z,14.47
2023-02-08T22:25:11.462Z,15.03
2023-02-08T22:28:14.381Z,14.47
2023-02-08T22:31:17.711Z,13.73
2023-02-08T22:34:22.007Z,14.50
2023-02-08T22:37:24.884Z,16.03
2023-02-08T22:40:27.797Z,15.27
2023-02-08T22:43:30.681Z,14.40
2023-02-08T22:46:33.529Z,14.47
2023-02-08T22:49:38.366Z,15.17
2023-02-08T22:52:41.228Z,15.03
2023-02-08T22:55:49.821Z,14.33
2023-02-08T22:58:53.147Z,15.37
2023-02-08T23:01:56.088Z,13.40
2023-02-08T23:05:00.339Z,12.57
2023-02-08T23:08:03.193Z,12.40
2023-02-08T23:11:07.556Z,13.57
2023-02-08T23:14:10.432Z,12.67
2023-02-08T23:17:13.303Z,14.53
2023-02-08T23:20:17.945Z,13.13
2023-02-08T23:23:21.228Z,12.17
2023-02-08T23:26:24.826Z,15.73
2023-02-08T23:29:28.161Z,12.07
2023-02-08T23:32:31.026Z,12.50
2023-02-08T23:35:35.582Z,13.60
2023-02-08T23:38:39.250Z,12.87
2023-02-08T23:41:42.119Z,12.67
2023-02-08T23:44:44.963Z,13.10
2023-02-08T23:47:47.817Z,14.03
2023-02-08T23:50:59.459Z,12.63
2023-02-08T23:54:02.312Z,11.20
2023-02-08T23:57:05.457Z,13.50
